ARG1446 SABE-SANT
Flight info
| Callsign | ARG1446 |
|---|---|
| Flight time | 1h 38m |
| Altitude | 34000 |
| Route | BIVAM4B BIVAM UW8 ERE UT680 ANGEN ANGEN1U |
| Aircraft | B738/M-SDE2E3FGHIRWXY/LB1 |
Departure
| Time | 2026-05-04 21:12 |
|---|---|
| Airport | Aeroparque Jorge Newbery (SABE) |
Arrival
| Time | 2026-05-04 22:50 |
|---|---|
| Airport | Teniente Benjamín Matienzo International Airport (SANT) |
| Time | Latitude | Longitude | Altitude | Speed | Heading |
|---|---|---|---|---|---|
| 2026-05-04 20:11 | -34.55854 | -58.41174 | 26 ft | 0 kts | 44° |
| 2026-05-04 21:03 | -34.55859 | -58.41180 | 26 ft | 4 kts | 38° |
| 2026-05-04 21:03 | -34.55881 | -58.41189 | 32 ft | 4 kts | 344° |
| 2026-05-04 21:03 | -34.55900 | -58.41175 | 26 ft | 2 kts | 310° |
| 2026-05-04 21:04 | -34.55901 | -58.41174 | 26 ft | 1 kts | 310° |
| 2026-05-04 21:07 | -34.55901 | -58.41175 | 26 ft | 0 kts | 310° |
| 2026-05-04 21:07 | -34.55888 | -58.41193 | 28 ft | 6 kts | 311° |
| 2026-05-04 21:07 | -34.55858 | -58.41252 | 29 ft | 7 kts | 272° |
| 2026-05-04 21:08 | -34.55888 | -58.41293 | 26 ft | 7 kts | 212° |
| 2026-05-04 21:08 | -34.55930 | -58.41284 | 28 ft | 7 kts | 136° |
| 2026-05-04 21:08 | -34.55967 | -58.41226 | 28 ft | 13 kts | 127° |
| 2026-05-04 21:08 | -34.56030 | -58.41123 | 28 ft | 16 kts | 127° |
| 2026-05-04 21:09 | -34.56094 | -58.41020 | 26 ft | 15 kts | 127° |
| 2026-05-04 21:09 | -34.56153 | -58.40920 | 28 ft | 14 kts | 112° |
| 2026-05-04 21:09 | -34.56201 | -58.40821 | 30 ft | 14 kts | 135° |
| 2026-05-04 21:09 | -34.56266 | -58.40743 | 26 ft | 12 kts | 136° |
| 2026-05-04 21:10 | -34.56328 | -58.40675 | 25 ft | 12 kts | 142° |
| 2026-05-04 21:10 | -34.56396 | -58.40638 | 25 ft | 8 kts | 179° |
| 2026-05-04 21:10 | -34.56418 | -58.40677 | 24 ft | 5 kts | 283° |
| 2026-05-04 21:10 | -34.56401 | -58.40717 | 24 ft | 5 kts | 301° |
| 2026-05-04 21:11 | -34.56381 | -58.40755 | 29 ft | 5 kts | 303° |
| 2026-05-04 21:11 | -34.56360 | -58.40792 | 25 ft | 6 kts | 305° |
| 2026-05-04 21:11 | -34.56178 | -58.41118 | 27 ft | 90 kts | 304° |
| 2026-05-04 21:11 | -34.55678 | -58.42015 | 28 ft | 164 kts | 304° |
| 2026-05-04 21:12 | -34.54966 | -58.43288 | 541 ft | 194 kts | 305° |
| 2026-05-04 21:12 | -34.54447 | -58.44209 | 1106 ft | 201 kts | 306° |
| 2026-05-04 21:12 | -34.53450 | -58.45306 | 2283 ft | 194 kts | 338° |
| 2026-05-04 21:12 | -34.52063 | -58.45459 | 2958 ft | 211 kts | 8° |
| 2026-05-04 21:13 | -34.50639 | -58.44805 | 3424 ft | 226 kts | 26° |
| 2026-05-04 21:13 | -34.49288 | -58.43817 | 4101 ft | 231 kts | 28° |
| 2026-05-04 21:13 | -34.47839 | -58.42714 | 4351 ft | 259 kts | 29° |
| 2026-05-04 21:13 | -34.46287 | -58.41518 | 4938 ft | 269 kts | 28° |
| 2026-05-04 21:14 | -34.44700 | -58.40291 | 4906 ft | 271 kts | 28° |
| 2026-05-04 21:14 | -34.43113 | -58.39066 | 4918 ft | 270 kts | 28° |
| 2026-05-04 21:14 | -34.41530 | -58.37846 | 4925 ft | 270 kts | 28° |
| 2026-05-04 21:14 | -34.39916 | -58.36686 | 4914 ft | 269 kts | 19° |
| 2026-05-04 21:15 | -34.38122 | -58.36374 | 5280 ft | 259 kts | 350° |
| 2026-05-04 21:15 | -34.36415 | -58.36980 | 6131 ft | 254 kts | 330° |
| 2026-05-04 21:15 | -34.34917 | -58.38125 | 6895 ft | 258 kts | 324° |
| 2026-05-04 21:15 | -34.33421 | -58.39357 | 7599 ft | 263 kts | 323° |
| 2026-05-04 21:16 | -34.31895 | -58.40615 | 8340 ft | 267 kts | 323° |
| 2026-05-04 21:16 | -34.30372 | -58.41865 | 9099 ft | 268 kts | 323° |
| 2026-05-04 21:16 | -34.28811 | -58.43141 | 9773 ft | 274 kts | 323° |
| 2026-05-04 21:16 | -34.27208 | -58.44450 | 10265 ft | 287 kts | 322° |
| 2026-05-04 21:17 | -34.25478 | -58.45861 | 10426 ft | 311 kts | 323° |
| 2026-05-04 21:17 | -34.23614 | -58.47374 | 10597 ft | 333 kts | 323° |
| 2026-05-04 21:17 | -34.21647 | -58.48965 | 10953 ft | 346 kts | 323° |
| 2026-05-04 21:17 | -34.19633 | -58.50587 | 11540 ft | 351 kts | 322° |
| 2026-05-04 21:18 | -34.17589 | -58.52235 | 12177 ft | 355 kts | 322° |
| 2026-05-04 21:18 | -34.15539 | -58.53928 | 12787 ft | 356 kts | 317° |
| 2026-05-04 21:18 | -34.13927 | -58.56144 | 13411 ft | 350 kts | 295° |
| 2026-05-04 21:18 | -34.13073 | -58.58858 | 14083 ft | 344 kts | 279° |
| 2026-05-04 21:19 | -34.12878 | -58.61721 | 14666 ft | 343 kts | 264° |
| 2026-05-04 21:19 | -34.13190 | -58.64579 | 15283 ft | 345 kts | 260° |
| 2026-05-04 21:19 | -34.13548 | -58.67452 | 15874 ft | 347 kts | 260° |
| 2026-05-04 21:19 | -34.13896 | -58.70345 | 16476 ft | 349 kts | 260° |
| 2026-05-04 21:20 | -34.14232 | -58.73256 | 17071 ft | 351 kts | 260° |
| 2026-05-04 21:20 | -34.14513 | -58.76195 | 17619 ft | 355 kts | 266° |
| 2026-05-04 21:20 | -34.14119 | -58.79159 | 18212 ft | 363 kts | 285° |
| 2026-05-04 21:20 | -34.12961 | -58.81903 | 18770 ft | 374 kts | 298° |
| 2026-05-04 21:21 | -34.11189 | -58.84276 | 19199 ft | 391 kts | 316° |
| 2026-05-04 21:21 | -34.08868 | -58.86075 | 19690 ft | 400 kts | 322° |
| 2026-05-04 21:21 | -34.06491 | -58.87765 | 20148 ft | 403 kts | 322° |
| 2026-05-04 21:21 | -34.04066 | -58.89494 | 20585 ft | 406 kts | 322° |
| 2026-05-04 21:22 | -34.01638 | -58.91247 | 21028 ft | 408 kts | 322° |
| 2026-05-04 21:22 | -33.99196 | -58.93029 | 21438 ft | 412 kts | 322° |
| 2026-05-04 21:22 | -33.96739 | -58.94825 | 21836 ft | 415 kts | 322° |
| 2026-05-04 21:22 | -33.94263 | -58.96636 | 22230 ft | 417 kts | 322° |
| 2026-05-04 21:23 | -33.91774 | -58.98456 | 22629 ft | 420 kts | 322° |
| 2026-05-04 21:23 | -33.89273 | -59.00285 | 23007 ft | 422 kts | 322° |
| 2026-05-04 21:23 | -33.86761 | -59.02120 | 23359 ft | 424 kts | 322° |
| 2026-05-04 21:23 | -33.84228 | -59.03969 | 23693 ft | 427 kts | 322° |
| 2026-05-04 21:24 | -33.81678 | -59.05828 | 24037 ft | 429 kts | 322° |
| 2026-05-04 21:24 | -33.79116 | -59.07696 | 24385 ft | 431 kts | 322° |
| 2026-05-04 21:24 | -33.76543 | -59.09570 | 24726 ft | 433 kts | 322° |
| 2026-05-04 21:24 | -33.73959 | -59.11450 | 25063 ft | 435 kts | 322° |
| 2026-05-04 21:25 | -33.71362 | -59.13339 | 25408 ft | 436 kts | 322° |
| 2026-05-04 21:25 | -33.68798 | -59.15203 | 25754 ft | 438 kts | 322° |
| 2026-05-04 21:25 | -33.66184 | -59.17101 | 26076 ft | 439 kts | 322° |
| 2026-05-04 21:25 | -33.63561 | -59.19005 | 26372 ft | 442 kts | 322° |
| 2026-05-04 21:26 | -33.60927 | -59.20915 | 26671 ft | 443 kts | 322° |
| 2026-05-04 21:26 | -33.58284 | -59.22831 | 26970 ft | 445 kts | 322° |
| 2026-05-04 21:26 | -33.55633 | -59.24750 | 27296 ft | 446 kts | 322° |
| 2026-05-04 21:26 | -33.52973 | -59.26676 | 27593 ft | 447 kts | 322° |
| 2026-05-04 21:27 | -33.50306 | -59.28604 | 27893 ft | 448 kts | 322° |
| 2026-05-04 21:27 | -33.47631 | -59.30537 | 28158 ft | 450 kts | 322° |
| 2026-05-04 21:27 | -33.44945 | -59.32475 | 28428 ft | 451 kts | 322° |
| 2026-05-04 21:27 | -33.42251 | -59.34419 | 28671 ft | 453 kts | 321° |
| 2026-05-04 21:28 | -33.39545 | -59.36371 | 28957 ft | 454 kts | 322° |
| 2026-05-04 21:28 | -33.36845 | -59.38315 | 29335 ft | 452 kts | 321° |
| 2026-05-04 21:28 | -33.34161 | -59.40243 | 29801 ft | 448 kts | 321° |
| 2026-05-04 21:28 | -33.31494 | -59.42159 | 30210 ft | 446 kts | 321° |
| 2026-05-04 21:29 | -33.28833 | -59.44071 | 30537 ft | 446 kts | 321° |
| 2026-05-04 21:29 | -33.26175 | -59.45980 | 30902 ft | 444 kts | 321° |
| 2026-05-04 21:29 | -33.23531 | -59.47878 | 31273 ft | 441 kts | 321° |
| 2026-05-04 21:29 | -33.20930 | -59.49745 | 31594 ft | 440 kts | 321° |
| 2026-05-04 21:30 | -33.18307 | -59.51626 | 31871 ft | 440 kts | 321° |
| 2026-05-04 21:30 | -33.15682 | -59.53507 | 32185 ft | 439 kts | 321° |
| 2026-05-04 21:30 | -33.13073 | -59.55373 | 32547 ft | 436 kts | 321° |
| 2026-05-04 21:30 | -33.10469 | -59.57236 | 32839 ft | 435 kts | 321° |
| 2026-05-04 21:31 | -33.05293 | -59.60934 | 33387 ft | 433 kts | 321° |
| 2026-05-04 21:31 | -33.02706 | -59.62781 | 33637 ft | 433 kts | 321° |
| 2026-05-04 21:31 | -33.00131 | -59.64619 | 33910 ft | 432 kts | 321° |
| 2026-05-04 21:32 | -32.97546 | -59.66464 | 33877 ft | 435 kts | 321° |
| 2026-05-04 21:32 | -32.92345 | -59.70170 | 33897 ft | 434 kts | 321° |
| 2026-05-04 21:33 | -32.87194 | -59.73829 | 33897 ft | 429 kts | 321° |
| 2026-05-04 21:33 | -32.82073 | -59.77467 | 33896 ft | 428 kts | 321° |
| 2026-05-04 21:34 | -32.76974 | -59.81086 | 33903 ft | 427 kts | 321° |
| 2026-05-04 21:34 | -32.71910 | -59.84673 | 33894 ft | 426 kts | 321° |
| 2026-05-04 21:35 | -32.66811 | -59.88282 | 33905 ft | 427 kts | 321° |
| 2026-05-04 21:35 | -32.61693 | -59.91900 | 33895 ft | 429 kts | 321° |
| 2026-05-04 21:36 | -32.56558 | -59.95522 | 33897 ft | 430 kts | 321° |
| 2026-05-04 21:36 | -32.51408 | -59.99153 | 33890 ft | 431 kts | 321° |
| 2026-05-04 21:37 | -32.46251 | -60.02788 | 33892 ft | 433 kts | 321° |
| 2026-05-04 21:37 | -32.41063 | -60.06438 | 33885 ft | 434 kts | 322° |
| 2026-05-04 21:38 | -32.35875 | -60.10082 | 33894 ft | 434 kts | 322° |
| 2026-05-04 21:38 | -32.30709 | -60.13706 | 33884 ft | 434 kts | 322° |
| 2026-05-04 21:39 | -32.25517 | -60.17344 | 33886 ft | 434 kts | 322° |
| 2026-05-04 21:39 | -32.20333 | -60.20971 | 33890 ft | 433 kts | 322° |
| 2026-05-04 21:40 | -32.15141 | -60.24601 | 33891 ft | 432 kts | 322° |
| 2026-05-04 21:40 | -32.09979 | -60.28207 | 33891 ft | 431 kts | 322° |
| 2026-05-04 21:41 | -32.04810 | -60.31811 | 33887 ft | 431 kts | 322° |
| 2026-05-04 21:41 | -31.99656 | -60.35395 | 33886 ft | 430 kts | 322° |
| 2026-05-04 21:42 | -31.94530 | -60.38960 | 33891 ft | 430 kts | 322° |
| 2026-05-04 21:42 | -31.89381 | -60.42535 | 33893 ft | 430 kts | 322° |
| 2026-05-04 21:43 | -31.84233 | -60.46107 | 33890 ft | 430 kts | 322° |
| 2026-05-04 21:43 | -31.79098 | -60.49694 | 33879 ft | 429 kts | 320° |
| 2026-05-04 21:44 | -31.74099 | -60.53496 | 33899 ft | 428 kts | 319° |
| 2026-05-04 21:44 | -31.69125 | -60.57354 | 33878 ft | 429 kts | 319° |
| 2026-05-04 21:45 | -31.64127 | -60.61190 | 33876 ft | 430 kts | 319° |
| 2026-05-04 21:45 | -31.59107 | -60.65014 | 33870 ft | 430 kts | 320° |
| 2026-05-04 21:46 | -31.54079 | -60.68830 | 33870 ft | 431 kts | 320° |
| 2026-05-04 21:46 | -31.49046 | -60.72646 | 33861 ft | 431 kts | 320° |
| 2026-05-04 21:47 | -31.44014 | -60.76455 | 33861 ft | 430 kts | 320° |
| 2026-05-04 21:47 | -31.38988 | -60.80257 | 33859 ft | 430 kts | 320° |
| 2026-05-04 21:48 | -31.33962 | -60.84053 | 33862 ft | 430 kts | 320° |
| 2026-05-04 21:48 | -31.28970 | -60.87819 | 33862 ft | 429 kts | 320° |
| 2026-05-04 21:49 | -31.23942 | -60.91608 | 33860 ft | 429 kts | 320° |
| 2026-05-04 21:49 | -31.18920 | -60.95388 | 33860 ft | 429 kts | 320° |
| 2026-05-04 21:50 | -31.13902 | -60.99159 | 33862 ft | 429 kts | 320° |
| 2026-05-04 21:50 | -31.08889 | -61.02924 | 33861 ft | 428 kts | 320° |
| 2026-05-04 21:51 | -31.03871 | -61.06685 | 33859 ft | 429 kts | 320° |
| 2026-05-04 21:51 | -30.98847 | -61.10438 | 33850 ft | 429 kts | 320° |
| 2026-05-04 21:52 | -30.93850 | -61.14162 | 33854 ft | 429 kts | 320° |
| 2026-05-04 21:52 | -30.88821 | -61.17907 | 33852 ft | 429 kts | 320° |
| 2026-05-04 21:53 | -30.83788 | -61.21651 | 33852 ft | 429 kts | 320° |
| 2026-05-04 21:53 | -30.78756 | -61.25391 | 33854 ft | 429 kts | 320° |
| 2026-05-04 21:54 | -30.73717 | -61.29130 | 33852 ft | 429 kts | 320° |
| 2026-05-04 21:54 | -30.68683 | -61.32861 | 33852 ft | 429 kts | 320° |
| 2026-05-04 21:55 | -30.63647 | -61.36589 | 33853 ft | 429 kts | 320° |
| 2026-05-04 21:55 | -30.58641 | -61.40290 | 33851 ft | 429 kts | 320° |
| 2026-05-04 21:56 | -30.53607 | -61.44007 | 33852 ft | 429 kts | 320° |
| 2026-05-04 21:56 | -30.48567 | -61.47723 | 33852 ft | 429 kts | 320° |
| 2026-05-04 21:57 | -30.43534 | -61.51431 | 33851 ft | 429 kts | 320° |
| 2026-05-04 21:57 | -30.38490 | -61.55142 | 33852 ft | 428 kts | 320° |
| 2026-05-04 21:58 | -30.33464 | -61.58835 | 33850 ft | 428 kts | 320° |
| 2026-05-04 21:58 | -30.28443 | -61.62520 | 33852 ft | 427 kts | 320° |
| 2026-05-04 21:59 | -30.23450 | -61.66181 | 33855 ft | 427 kts | 320° |
| 2026-05-04 21:59 | -30.18400 | -61.69879 | 33851 ft | 427 kts | 320° |
| 2026-05-04 22:00 | -30.13414 | -61.73524 | 33853 ft | 427 kts | 320° |
| 2026-05-04 22:00 | -30.08385 | -61.77197 | 33851 ft | 427 kts | 320° |
| 2026-05-04 22:01 | -30.03371 | -61.80855 | 33850 ft | 427 kts | 320° |
| 2026-05-04 22:01 | -29.98346 | -61.84516 | 33853 ft | 427 kts | 320° |
| 2026-05-04 22:02 | -29.94172 | -61.87554 | 33852 ft | 427 kts | 320° |
| 2026-05-04 22:02 | -29.89149 | -61.91206 | 33852 ft | 427 kts | 320° |
| 2026-05-04 22:03 | -29.84632 | -61.95370 | 33867 ft | 414 kts | 308° |
| 2026-05-04 22:03 | -29.80485 | -61.99999 | 33859 ft | 415 kts | 309° |
| 2026-05-04 22:04 | -29.76298 | -62.04598 | 33851 ft | 416 kts | 309° |
| 2026-05-04 22:04 | -29.72091 | -62.09195 | 33854 ft | 417 kts | 309° |
| 2026-05-04 22:05 | -29.67901 | -62.13761 | 33845 ft | 417 kts | 309° |
| 2026-05-04 22:05 | -29.63680 | -62.18358 | 33839 ft | 418 kts | 309° |
| 2026-05-04 22:06 | -29.59461 | -62.22950 | 33844 ft | 418 kts | 310° |
| 2026-05-04 22:06 | -29.55236 | -62.27542 | 33842 ft | 418 kts | 310° |
| 2026-05-04 22:07 | -29.51007 | -62.32132 | 33844 ft | 418 kts | 310° |
| 2026-05-04 22:07 | -29.46776 | -62.36719 | 33842 ft | 418 kts | 310° |
| 2026-05-04 22:08 | -29.42582 | -62.41261 | 33841 ft | 418 kts | 310° |
| 2026-05-04 22:08 | -29.38345 | -62.45845 | 33842 ft | 419 kts | 310° |
| 2026-05-04 22:09 | -29.36229 | -62.48131 | 33841 ft | 418 kts | 310° |
| 2026-05-04 22:09 | -29.29864 | -62.54998 | 33841 ft | 418 kts | 310° |
| 2026-05-04 22:10 | -29.25629 | -62.59563 | 33838 ft | 418 kts | 310° |
| 2026-05-04 22:10 | -29.21398 | -62.64121 | 33845 ft | 418 kts | 310° |
| 2026-05-04 22:11 | -29.17194 | -62.68640 | 33861 ft | 417 kts | 310° |
| 2026-05-04 22:11 | -29.12951 | -62.73196 | 33861 ft | 418 kts | 310° |
| 2026-05-04 22:12 | -29.08709 | -62.77746 | 33859 ft | 418 kts | 310° |
| 2026-05-04 22:12 | -29.04469 | -62.82289 | 33853 ft | 418 kts | 310° |
| 2026-05-04 22:13 | -29.00225 | -62.86835 | 33855 ft | 418 kts | 310° |
| 2026-05-04 22:13 | -28.95981 | -62.91366 | 33851 ft | 418 kts | 310° |
| 2026-05-04 22:14 | -28.91756 | -62.95871 | 33853 ft | 418 kts | 310° |
| 2026-05-04 22:14 | -28.87508 | -63.00396 | 33849 ft | 417 kts | 310° |
| 2026-05-04 22:15 | -28.83248 | -63.04932 | 33853 ft | 418 kts | 310° |
| 2026-05-04 22:15 | -28.78999 | -63.09453 | 33852 ft | 418 kts | 310° |
| 2026-05-04 22:16 | -28.74766 | -63.13947 | 33853 ft | 418 kts | 310° |
| 2026-05-04 22:16 | -28.70511 | -63.18461 | 33847 ft | 419 kts | 311° |
| 2026-05-04 22:17 | -28.66241 | -63.22985 | 33842 ft | 419 kts | 310° |
| 2026-05-04 22:17 | -28.61969 | -63.27508 | 33842 ft | 419 kts | 311° |
| 2026-05-04 22:18 | -28.57691 | -63.32031 | 33840 ft | 420 kts | 311° |
| 2026-05-04 22:18 | -28.53412 | -63.36552 | 33832 ft | 420 kts | 311° |
| 2026-05-04 22:19 | -28.49123 | -63.41071 | 33835 ft | 420 kts | 311° |
| 2026-05-04 22:19 | -28.44840 | -63.45585 | 33832 ft | 420 kts | 311° |
| 2026-05-04 22:20 | -28.40554 | -63.50098 | 33834 ft | 420 kts | 311° |
| 2026-05-04 22:20 | -28.36265 | -63.54606 | 33834 ft | 420 kts | 311° |
| 2026-05-04 22:21 | -28.31985 | -63.59103 | 33831 ft | 420 kts | 311° |
| 2026-05-04 22:21 | -28.27697 | -63.63596 | 33833 ft | 420 kts | 311° |
| 2026-05-04 22:22 | -28.23433 | -63.68066 | 33833 ft | 421 kts | 311° |
| 2026-05-04 22:22 | -28.19129 | -63.72569 | 33834 ft | 421 kts | 311° |
| 2026-05-04 22:23 | -28.14858 | -63.77029 | 33822 ft | 413 kts | 311° |
| 2026-05-04 22:23 | -28.12756 | -63.79225 | 33688 ft | 412 kts | 311° |
| 2026-05-04 22:23 | -28.10650 | -63.81426 | 33416 ft | 410 kts | 311° |
| 2026-05-04 22:23 | -28.08560 | -63.83606 | 33172 ft | 407 kts | 311° |
| 2026-05-04 22:24 | -28.06487 | -63.85766 | 32921 ft | 404 kts | 311° |
| 2026-05-04 22:24 | -28.04419 | -63.87925 | 32671 ft | 403 kts | 311° |
| 2026-05-04 22:24 | -28.02364 | -63.90075 | 32423 ft | 402 kts | 311° |
| 2026-05-04 22:24 | -28.00324 | -63.92209 | 32072 ft | 396 kts | 311° |
| 2026-05-04 22:25 | -27.98311 | -63.94314 | 31687 ft | 392 kts | 311° |
| 2026-05-04 22:25 | -27.96314 | -63.96400 | 31281 ft | 389 kts | 311° |
| 2026-05-04 22:25 | -27.94334 | -63.98468 | 30879 ft | 386 kts | 311° |
| 2026-05-04 22:25 | -27.92368 | -64.00522 | 30479 ft | 383 kts | 311° |
| 2026-05-04 22:26 | -27.90441 | -64.02534 | 30085 ft | 380 kts | 311° |
| 2026-05-04 22:26 | -27.88503 | -64.04558 | 29692 ft | 378 kts | 311° |
| 2026-05-04 22:26 | -27.86583 | -64.06560 | 29291 ft | 374 kts | 311° |
| 2026-05-04 22:26 | -27.84672 | -64.08552 | 28886 ft | 372 kts | 312° |
| 2026-05-04 22:27 | -27.82778 | -64.10521 | 28480 ft | 369 kts | 312° |
| 2026-05-04 22:27 | -27.80895 | -64.12483 | 28082 ft | 366 kts | 312° |
| 2026-05-04 22:27 | -27.79024 | -64.14431 | 27683 ft | 364 kts | 312° |
| 2026-05-04 22:27 | -27.77171 | -64.16361 | 27288 ft | 361 kts | 312° |
| 2026-05-04 22:28 | -27.75332 | -64.18274 | 26895 ft | 359 kts | 313° |
| 2026-05-04 22:28 | -27.73504 | -64.20174 | 26507 ft | 356 kts | 313° |
| 2026-05-04 22:28 | -27.71688 | -64.22061 | 26121 ft | 354 kts | 313° |
| 2026-05-04 22:28 | -27.69878 | -64.23941 | 25736 ft | 352 kts | 313° |
| 2026-05-04 22:29 | -27.68080 | -64.25807 | 25348 ft | 350 kts | 313° |
| 2026-05-04 22:29 | -27.66289 | -64.27665 | 24972 ft | 348 kts | 313° |
| 2026-05-04 22:29 | -27.64512 | -64.29507 | 24598 ft | 346 kts | 314° |
| 2026-05-04 22:29 | -27.62743 | -64.31340 | 24214 ft | 344 kts | 314° |
| 2026-05-04 22:30 | -27.60986 | -64.33161 | 23846 ft | 343 kts | 314° |
| 2026-05-04 22:30 | -27.59227 | -64.34983 | 23479 ft | 343 kts | 314° |
| 2026-05-04 22:30 | -27.57490 | -64.36780 | 23115 ft | 344 kts | 314° |
| 2026-05-04 22:30 | -27.55708 | -64.38625 | 22749 ft | 353 kts | 315° |
| 2026-05-04 22:31 | -27.53883 | -64.40514 | 22362 ft | 357 kts | 315° |
| 2026-05-04 22:31 | -27.52059 | -64.42399 | 21961 ft | 355 kts | 315° |
| 2026-05-04 22:31 | -27.50244 | -64.44272 | 21575 ft | 353 kts | 315° |
| 2026-05-04 22:31 | -27.48446 | -64.46127 | 21194 ft | 350 kts | 315° |
| 2026-05-04 22:32 | -27.46655 | -64.47975 | 20818 ft | 348 kts | 315° |
| 2026-05-04 22:32 | -27.44880 | -64.49806 | 20436 ft | 345 kts | 316° |
| 2026-05-04 22:32 | -27.43113 | -64.51628 | 20067 ft | 343 kts | 316° |
| 2026-05-04 22:32 | -27.41357 | -64.53437 | 19695 ft | 341 kts | 316° |
| 2026-05-04 22:33 | -27.39613 | -64.55236 | 19325 ft | 338 kts | 316° |
| 2026-05-04 22:33 | -27.37875 | -64.57026 | 18950 ft | 337 kts | 316° |
| 2026-05-04 22:33 | -27.36153 | -64.58798 | 18586 ft | 335 kts | 316° |
| 2026-05-04 22:33 | -27.34435 | -64.60554 | 18219 ft | 333 kts | 318° |
| 2026-05-04 22:34 | -27.32628 | -64.62172 | 17857 ft | 331 kts | 322° |
| 2026-05-04 22:34 | -27.30772 | -64.63685 | 17494 ft | 329 kts | 323° |
| 2026-05-04 22:34 | -27.28939 | -64.65162 | 17142 ft | 326 kts | 323° |
| 2026-05-04 22:34 | -27.27105 | -64.66649 | 16789 ft | 324 kts | 323° |
| 2026-05-04 22:35 | -27.25286 | -64.68140 | 16435 ft | 322 kts | 323° |
| 2026-05-04 22:35 | -27.23487 | -64.69625 | 16084 ft | 320 kts | 323° |
| 2026-05-04 22:35 | -27.21696 | -64.71107 | 15736 ft | 318 kts | 323° |
| 2026-05-04 22:35 | -27.19919 | -64.72580 | 15386 ft | 317 kts | 323° |
| 2026-05-04 22:36 | -27.18088 | -64.73933 | 15026 ft | 315 kts | 335° |
| 2026-05-04 22:36 | -27.15982 | -64.74561 | 14754 ft | 312 kts | 348° |
| 2026-05-04 22:36 | -27.13852 | -64.75020 | 14382 ft | 311 kts | 347° |
| 2026-05-04 22:36 | -27.11736 | -64.75500 | 14043 ft | 309 kts | 347° |
| 2026-05-04 22:37 | -27.09630 | -64.75985 | 13701 ft | 308 kts | 347° |
| 2026-05-04 22:37 | -27.07537 | -64.76469 | 13361 ft | 307 kts | 347° |
| 2026-05-04 22:37 | -27.05453 | -64.76951 | 13021 ft | 305 kts | 348° |
| 2026-05-04 22:37 | -27.03380 | -64.77430 | 12681 ft | 303 kts | 348° |
| 2026-05-04 22:38 | -27.01317 | -64.77907 | 12338 ft | 302 kts | 348° |
| 2026-05-04 22:38 | -26.99290 | -64.78377 | 12005 ft | 300 kts | 348° |
| 2026-05-04 22:38 | -26.97250 | -64.78850 | 11713 ft | 297 kts | 348° |
| 2026-05-04 22:38 | -26.95257 | -64.79310 | 11604 ft | 288 kts | 348° |
| 2026-05-04 22:39 | -26.93317 | -64.79759 | 11475 ft | 281 kts | 348° |
| 2026-05-04 22:39 | -26.91435 | -64.80193 | 11370 ft | 272 kts | 348° |
| 2026-05-04 22:39 | -26.89594 | -64.80618 | 11133 ft | 269 kts | 348° |
| 2026-05-04 22:39 | -26.87772 | -64.81037 | 10879 ft | 266 kts | 348° |
| 2026-05-04 22:40 | -26.85964 | -64.81456 | 10599 ft | 264 kts | 348° |
| 2026-05-04 22:40 | -26.84174 | -64.81871 | 10313 ft | 262 kts | 349° |
| 2026-05-04 22:40 | -26.82418 | -64.82276 | 10043 ft | 260 kts | 349° |
| 2026-05-04 22:40 | -26.80657 | -64.82687 | 9767 ft | 257 kts | 349° |
| 2026-05-04 22:41 | -26.78904 | -64.83090 | 9487 ft | 256 kts | 349° |
| 2026-05-04 22:41 | -26.77168 | -64.83483 | 9211 ft | 255 kts | 349° |
| 2026-05-04 22:41 | -26.75430 | -64.83884 | 8935 ft | 254 kts | 349° |
| 2026-05-04 22:41 | -26.73705 | -64.84280 | 8657 ft | 253 kts | 349° |
| 2026-05-04 22:42 | -26.71985 | -64.84688 | 8381 ft | 252 kts | 349° |
| 2026-05-04 22:42 | -26.70269 | -64.85080 | 8102 ft | 251 kts | 349° |
| 2026-05-04 22:42 | -26.68558 | -64.85469 | 7891 ft | 247 kts | 349° |
| 2026-05-04 22:42 | -26.66902 | -64.85849 | 7776 ft | 239 kts | 349° |
| 2026-05-04 22:43 | -26.65298 | -64.86216 | 7668 ft | 232 kts | 349° |
| 2026-05-04 22:43 | -26.63759 | -64.86669 | 7542 ft | 227 kts | 335° |
| 2026-05-04 22:43 | -26.62587 | -64.87811 | 7420 ft | 225 kts | 308° |
| 2026-05-04 22:43 | -26.61966 | -64.89406 | 7192 ft | 228 kts | 285° |
| 2026-05-04 22:44 | -26.61802 | -64.91176 | 6937 ft | 230 kts | 277° |
| 2026-05-04 22:44 | -26.61692 | -64.93004 | 6381 ft | 241 kts | 279° |
| 2026-05-04 22:44 | -26.61574 | -64.94879 | 5841 ft | 243 kts | 278° |
| 2026-05-04 22:44 | -26.61425 | -64.96728 | 5618 ft | 228 kts | 278° |
| 2026-05-04 22:45 | -26.61302 | -64.98430 | 5580 ft | 210 kts | 279° |
| 2026-05-04 22:45 | -26.61078 | -65.01553 | 5583 ft | 203 kts | 278° |
| 2026-05-04 22:45 | -26.61156 | -65.03136 | 5417 ft | 212 kts | 252° |
| 2026-05-04 22:46 | -26.62124 | -65.04349 | 5247 ft | 215 kts | 206° |
| 2026-05-04 22:46 | -26.63499 | -65.04974 | 5049 ft | 213 kts | 205° |
| 2026-05-04 22:46 | -26.64848 | -65.05661 | 4843 ft | 212 kts | 204° |
| 2026-05-04 22:46 | -26.66187 | -65.06324 | 4606 ft | 208 kts | 205° |
| 2026-05-04 22:47 | -26.67476 | -65.06971 | 4406 ft | 200 kts | 204° |
| 2026-05-04 22:47 | -26.68776 | -65.07521 | 4217 ft | 203 kts | 193° |
| 2026-05-04 22:47 | -26.70180 | -65.07824 | 3953 ft | 206 kts | 189° |
| 2026-05-04 22:47 | -26.71573 | -65.08084 | 3672 ft | 197 kts | 189° |
| 2026-05-04 22:48 | -26.72897 | -65.08338 | 3426 ft | 187 kts | 189° |
| 2026-05-04 22:48 | -26.74149 | -65.08576 | 3172 ft | 181 kts | 189° |
| 2026-05-04 22:48 | -26.75327 | -65.08803 | 2944 ft | 168 kts | 189° |
| 2026-05-04 22:48 | -26.76450 | -65.09018 | 2734 ft | 161 kts | 189° |
| 2026-05-04 22:49 | -26.77562 | -65.09234 | 2511 ft | 163 kts | 189° |
| 2026-05-04 22:49 | -26.78683 | -65.09457 | 2284 ft | 164 kts | 189° |
| 2026-05-04 22:49 | -26.79807 | -65.09660 | 2038 ft | 163 kts | 188° |
| 2026-05-04 22:49 | -26.80926 | -65.09875 | 1789 ft | 162 kts | 188° |
| 2026-05-04 22:50 | -26.82025 | -65.10078 | 1589 ft | 161 kts | 189° |
| 2026-05-04 22:50 | -26.83101 | -65.10291 | 1479 ft | 144 kts | 190° |
| 2026-05-04 22:50 | -26.83867 | -65.10441 | 1480 ft | 80 kts | 190° |
| 2026-05-04 22:50 | -26.84198 | -65.10508 | 1492 ft | 16 kts | 189° |
| 2026-05-04 22:51 | -26.84275 | -65.10522 | 1492 ft | 13 kts | 189° |
| 2026-05-04 22:51 | -26.84326 | -65.10544 | 1485 ft | 8 kts | 211° |
| 2026-05-04 22:51 | -26.84350 | -65.10541 | 1491 ft | 2 kts | 122° |
| 2026-05-04 22:51 | -26.84326 | -65.10518 | 1478 ft | 8 kts | 1° |
| 2026-05-04 22:52 | -26.84262 | -65.10519 | 1492 ft | 10 kts | 354° |
| 2026-05-04 22:52 | -26.84196 | -65.10541 | 1492 ft | 10 kts | 341° |
| 2026-05-04 22:52 | -26.84124 | -65.10570 | 1483 ft | 12 kts | 339° |
| 2026-05-04 22:52 | -26.84038 | -65.10605 | 1478 ft | 14 kts | 340° |
| 2026-05-04 22:53 | -26.83941 | -65.10644 | 1478 ft | 15 kts | 340° |
| 2026-05-04 22:53 | -26.83849 | -65.10682 | 1487 ft | 11 kts | 340° |
| 2026-05-04 22:53 | -26.83779 | -65.10710 | 1482 ft | 11 kts | 340° |
| 2026-05-04 22:53 | -26.83709 | -65.10729 | 1481 ft | 10 kts | 4° |
| 2026-05-04 22:54 | -26.83649 | -65.10718 | 1491 ft | 8 kts | 9° |
| 2026-05-04 22:54 | -26.83598 | -65.10708 | 1487 ft | 7 kts | 10° |
| 2026-05-04 22:54 | -26.83552 | -65.10700 | 1477 ft | 5 kts | 2° |
| 2026-05-04 22:54 | -26.83532 | -65.10731 | 1491 ft | 5 kts | 290° |
| 2026-05-04 22:55 | -26.83528 | -65.10751 | 1480 ft | 1 kts | 279° |